sensor_id;sensor_type;location;lat;lon;timestamp;P1;durP1;ratioP1;P2;durP2;ratioP2
11671;SDS011;5892;43.412;24.612;2023-01-26T00:00:07;21.20;;;13.87;;
11671;SDS011;5892;43.412;24.612;2023-01-26T00:02:35;22.00;;;13.67;;
11671;SDS011;5892;43.412;24.612;2023-01-26T00:05:02;26.63;;;14.33;;
11671;SDS011;5892;43.412;24.612;2023-01-26T00:07:30;22.47;;;13.70;;
11671;SDS011;5892;43.412;24.612;2023-01-26T00:09:57;19.00;;;11.23;;
11671;SDS011;5892;43.412;24.612;2023-01-26T00:12:28;20.63;;;12.37;;
11671;SDS011;5892;43.412;24.612;2023-01-26T00:14:55;22.27;;;12.77;;
11671;SDS011;5892;43.412;24.612;2023-01-26T00:17:22;20.80;;;13.23;;
11671;SDS011;5892;43.412;24.612;2023-01-26T00:19:52;19.83;;;11.77;;
11671;SDS011;5892;43.412;24.612;2023-01-26T00:22:20;20.53;;;12.17;;
11671;SDS011;5892;43.412;24.612;2023-01-26T00:24:47;22.50;;;12.67;;
11671;SDS011;5892;43.412;24.612;2023-01-26T00:27:14;21.47;;;12.90;;
11671;SDS011;5892;43.412;24.612;2023-01-26T00:29:42;20.30;;;12.00;;
11671;SDS011;5892;43.412;24.612;2023-01-26T00:32:09;18.10;;;11.37;;
11671;SDS011;5892;43.412;24.612;2023-01-26T00:34:36;23.03;;;12.47;;
11671;SDS011;5892;43.412;24.612;2023-01-26T00:37:03;18.90;;;12.03;;
11671;SDS011;5892;43.412;24.612;2023-01-26T00:39:30;18.50;;;11.60;;
11671;SDS011;5892;43.412;24.612;2023-01-26T00:41:56;19.63;;;12.47;;
11671;SDS011;5892;43.412;24.612;2023-01-26T00:44:34;21.33;;;13.07;;
11671;SDS011;5892;43.412;24.612;2023-01-26T00:47:04;22.17;;;12.63;;
11671;SDS011;5892;43.412;24.612;2023-01-26T00:49:31;17.17;;;11.67;;
11671;SDS011;5892;43.412;24.612;2023-01-26T00:51:58;23.17;;;13.67;;
11671;SDS011;5892;43.412;24.612;2023-01-26T00:54:25;27.73;;;14.50;;
11671;SDS011;5892;43.412;24.612;2023-01-26T00:56:53;22.23;;;13.37;;
11671;SDS011;5892;43.412;24.612;2023-01-26T00:59:20;21.07;;;13.07;;
11671;SDS011;5892;43.412;24.612;2023-01-26T01:01:48;21.43;;;13.63;;
11671;SDS011;5892;43.412;24.612;2023-01-26T01:04:16;21.13;;;13.07;;
11671;SDS011;5892;43.412;24.612;2023-01-26T01:06:43;22.77;;;13.27;;
11671;SDS011;5892;43.412;24.612;2023-01-26T01:09:11;21.17;;;14.17;;
11671;SDS011;5892;43.412;24.612;2023-01-26T01:11:38;24.10;;;14.50;;
11671;SDS011;5892;43.412;24.612;2023-01-26T01:14:05;21.50;;;12.97;;
11671;SDS011;5892;43.412;24.612;2023-01-26T01:16:31;24.33;;;14.13;;
11671;SDS011;5892;43.412;24.612;2023-01-26T01:18:59;20.27;;;13.20;;
11671;SDS011;5892;43.412;24.612;2023-01-26T01:21:27;23.17;;;14.80;;
11671;SDS011;5892;43.412;24.612;2023-01-26T01:23:54;24.37;;;14.37;;
11671;SDS011;5892;43.412;24.612;2023-01-26T01:26:21;21.43;;;13.80;;
11671;SDS011;5892;43.412;24.612;2023-01-26T01:28:48;20.60;;;12.67;;
11671;SDS011;5892;43.412;24.612;2023-01-26T01:31:19;22.37;;;13.60;;
11671;SDS011;5892;43.412;24.612;2023-01-26T01:33:53;25.07;;;13.70;;
11671;SDS011;5892;43.412;24.612;2023-01-26T01:36:20;24.03;;;14.57;;
11671;SDS011;5892;43.412;24.612;2023-01-26T01:42:07;22.17;;;14.27;;
11671;SDS011;5892;43.412;24.612;2023-01-26T01:44:34;21.83;;;13.67;;
11671;SDS011;5892;43.412;24.612;2023-01-26T01:47:03;22.47;;;13.57;;
11671;SDS011;5892;43.412;24.612;2023-01-26T01:49:32;23.80;;;14.63;;
11671;SDS011;5892;43.412;24.612;2023-01-26T01:52:03;24.83;;;13.83;;
11671;SDS011;5892;43.412;24.612;2023-01-26T01:54:33;22.30;;;14.17;;
11671;SDS011;5892;43.412;24.612;2023-01-26T01:57:07;25.00;;;14.33;;
11671;SDS011;5892;43.412;24.612;2023-01-26T01:59:41;21.23;;;13.57;;
11671;SDS011;5892;43.412;24.612;2023-01-26T02:02:11;24.90;;;14.33;;
11671;SDS011;5892;43.412;24.612;2023-01-26T02:04:40;22.20;;;13.67;;
11671;SDS011;5892;43.412;24.612;2023-01-26T02:07:07;26.47;;;14.97;;
11671;SDS011;5892;43.412;24.612;2023-01-26T02:09:36;23.73;;;13.80;;
11671;SDS011;5892;43.412;24.612;2023-01-26T02:12:25;26.33;;;14.70;;
11671;SDS011;5892;43.412;24.612;2023-01-26T02:14:55;23.67;;;13.70;;
11671;SDS011;5892;43.412;24.612;2023-01-26T02:17:23;22.50;;;13.47;;
11671;SDS011;5892;43.412;24.612;2023-01-26T02:19:53;25.40;;;14.40;;
11671;SDS011;5892;43.412;24.612;2023-01-26T02:22:31;23.30;;;14.00;;
11671;SDS011;5892;43.412;24.612;2023-01-26T02:25:09;27.47;;;15.00;;
11671;SDS011;5892;43.412;24.612;2023-01-26T02:27:46;21.90;;;14.30;;
11671;SDS011;5892;43.412;24.612;2023-01-26T02:30:13;23.17;;;13.83;;
11671;SDS011;5892;43.412;24.612;2023-01-26T02:32:41;22.60;;;13.63;;
11671;SDS011;5892;43.412;24.612;2023-01-26T02:35:08;24.70;;;14.27;;
11671;SDS011;5892;43.412;24.612;2023-01-26T02:37:35;23.20;;;13.23;;
11671;SDS011;5892;43.412;24.612;2023-01-26T02:40:03;23.57;;;14.60;;
11671;SDS011;5892;43.412;24.612;2023-01-26T02:42:38;25.30;;;14.63;;
11671;SDS011;5892;43.412;24.612;2023-01-26T02:45:09;22.60;;;14.13;;
11671;SDS011;5892;43.412;24.612;2023-01-26T02:47:39;24.17;;;14.83;;
11671;SDS011;5892;43.412;24.612;2023-01-26T02:50:07;22.83;;;14.23;;
11671;SDS011;5892;43.412;24.612;2023-01-26T02:52:34;23.80;;;15.20;;
11671;SDS011;5892;43.412;24.612;2023-01-26T02:55:01;23.53;;;14.33;;
11671;SDS011;5892;43.412;24.612;2023-01-26T02:57:45;24.07;;;14.47;;
11671;SDS011;5892;43.412;24.612;2023-01-26T03:00:15;23.90;;;13.77;;
11671;SDS011;5892;43.412;24.612;2023-01-26T03:02:43;23.73;;;14.23;;
11671;SDS011;5892;43.412;24.612;2023-01-26T03:05:12;24.07;;;13.57;;
11671;SDS011;5892;43.412;24.612;2023-01-26T03:07:39;22.67;;;14.40;;
11671;SDS011;5892;43.412;24.612;2023-01-26T03:10:07;22.53;;;14.07;;
11671;SDS011;5892;43.412;24.612;2023-01-26T03:12:34;22.20;;;14.20;;
11671;SDS011;5892;43.412;24.612;2023-01-26T03:15:01;25.77;;;14.50;;
11671;SDS011;5892;43.412;24.612;2023-01-26T03:17:47;24.37;;;14.20;;
11671;SDS011;5892;43.412;24.612;2023-01-26T03:20:13;24.00;;;13.60;;
11671;SDS011;5892;43.412;24.612;2023-01-26T03:22:58;24.60;;;14.50;;
11671;SDS011;5892;43.412;24.612;2023-01-26T03:25:43;22.73;;;13.23;;
11671;SDS011;5892;43.412;24.612;2023-01-26T03:28:41;21.90;;;13.73;;
11671;SDS011;5892;43.412;24.612;2023-01-26T03:31:08;25.73;;;13.87;;
11671;SDS011;5892;43.412;24.612;2023-01-26T03:33:36;23.73;;;14.43;;
11671;SDS011;5892;43.412;24.612;2023-01-26T03:36:03;29.23;;;15.23;;
11671;SDS011;5892;43.412;24.612;2023-01-26T03:38:31;25.57;;;14.20;;
11671;SDS011;5892;43.412;24.612;2023-01-26T03:40:58;23.63;;;14.37;;
11671;SDS011;5892;43.412;24.612;2023-01-26T03:43:42;23.03;;;13.97;;
11671;SDS011;5892;43.412;24.612;2023-01-26T03:46:26;23.20;;;14.63;;
11671;SDS011;5892;43.412;24.612;2023-01-26T03:49:11;22.67;;;13.70;;
11671;SDS011;5892;43.412;24.612;2023-01-26T03:51:55;23.37;;;14.40;;
11671;SDS011;5892;43.412;24.612;2023-01-26T03:54:40;37.23;;;17.27;;
11671;SDS011;5892;43.412;24.612;2023-01-26T03:57:24;24.90;;;15.00;;
11671;SDS011;5892;43.412;24.612;2023-01-26T03:59:54;21.33;;;12.33;;
11671;SDS011;5892;43.412;24.612;2023-01-26T04:02:21;24.60;;;14.30;;
11671;SDS011;5892;43.412;24.612;2023-01-26T04:05:07;21.10;;;12.93;;
11671;SDS011;5892;43.412;24.612;2023-01-26T04:07:51;22.03;;;14.07;;
11671;SDS011;5892;43.412;24.612;2023-01-26T04:10:36;26.73;;;14.60;;
11671;SDS011;5892;43.412;24.612;2023-01-26T04:13:04;22.77;;;13.53;;
11671;SDS011;5892;43.412;24.612;2023-01-26T04:15:48;22.23;;;13.80;;
11671;SDS011;5892;43.412;24.612;2023-01-26T04:18:32;20.70;;;13.63;;
11671;SDS011;5892;43.412;24.612;2023-01-26T04:21:18;25.73;;;14.20;;
11671;SDS011;5892;43.412;24.612;2023-01-26T04:23:56;23.63;;;14.33;;
11671;SDS011;5892;43.412;24.612;2023-01-26T04:26:23;22.80;;;13.90;;
11671;SDS011;5892;43.412;24.612;2023-01-26T04:28:51;25.37;;;14.77;;
11671;SDS011;5892;43.412;24.612;2023-01-26T04:31:20;24.80;;;14.83;;
11671;SDS011;5892;43.412;24.612;2023-01-26T04:33:46;22.20;;;14.00;;
11671;SDS011;5892;43.412;24.612;2023-01-26T04:36:13;23.80;;;14.83;;
11671;SDS011;5892;43.412;24.612;2023-01-26T04:38:41;22.33;;;13.97;;
11671;SDS011;5892;43.412;24.612;2023-01-26T04:41:08;22.47;;;13.23;;
11671;SDS011;5892;43.412;24.612;2023-01-26T04:43:35;23.03;;;13.60;;
11671;SDS011;5892;43.412;24.612;2023-01-26T04:46:03;22.67;;;14.13;;
11671;SDS011;5892;43.412;24.612;2023-01-26T04:48:31;21.63;;;13.17;;
11671;SDS011;5892;43.412;24.612;2023-01-26T04:50:59;24.33;;;14.27;;
11671;SDS011;5892;43.412;24.612;2023-01-26T04:53:27;23.47;;;13.70;;
11671;SDS011;5892;43.412;24.612;2023-01-26T04:55:57;23.17;;;13.80;;
11671;SDS011;5892;43.412;24.612;2023-01-26T04:58:26;21.93;;;14.27;;
11671;SDS011;5892;43.412;24.612;2023-01-26T05:00:53;23.70;;;13.97;;
11671;SDS011;5892;43.412;24.612;2023-01-26T05:03:21;23.57;;;14.10;;
11671;SDS011;5892;43.412;24.612;2023-01-26T05:05:48;21.57;;;13.77;;
11671;SDS011;5892;43.412;24.612;2023-01-26T05:08:17;21.67;;;12.63;;
11671;SDS011;5892;43.412;24.612;2023-01-26T05:10:44;26.17;;;14.40;;
11671;SDS011;5892;43.412;24.612;2023-01-26T05:13:13;23.17;;;13.83;;
11671;SDS011;5892;43.412;24.612;2023-01-26T05:15:40;20.33;;;12.40;;
11671;SDS011;5892;43.412;24.612;2023-01-26T05:18:08;24.60;;;14.57;;
11671;SDS011;5892;43.412;24.612;2023-01-26T05:20:36;23.40;;;13.93;;
11671;SDS011;5892;43.412;24.612;2023-01-26T05:23:03;23.27;;;14.43;;
11671;SDS011;5892;43.412;24.612;2023-01-26T05:25:29;22.63;;;14.60;;
11671;SDS011;5892;43.412;24.612;2023-01-26T05:27:57;23.47;;;14.40;;
11671;SDS011;5892;43.412;24.612;2023-01-26T05:30:25;21.40;;;13.30;;
11671;SDS011;5892;43.412;24.612;2023-01-26T05:32:52;24.17;;;15.47;;
11671;SDS011;5892;43.412;24.612;2023-01-26T05:35:19;22.53;;;14.17;;
11671;SDS011;5892;43.412;24.612;2023-01-26T05:37:46;24.87;;;15.10;;
11671;SDS011;5892;43.412;24.612;2023-01-26T05:40:13;20.20;;;12.97;;
11671;SDS011;5892;43.412;24.612;2023-01-26T05:42:41;23.10;;;13.93;;
11671;SDS011;5892;43.412;24.612;2023-01-26T05:45:08;23.67;;;15.07;;
11671;SDS011;5892;43.412;24.612;2023-01-26T05:47:41;25.20;;;15.53;;
11671;SDS011;5892;43.412;24.612;2023-01-26T05:50:11;28.30;;;15.97;;
11671;SDS011;5892;43.412;24.612;2023-01-26T05:52:38;24.40;;;16.10;;
11671;SDS011;5892;43.412;24.612;2023-01-26T05:55:06;25.30;;;16.00;;
11671;SDS011;5892;43.412;24.612;2023-01-26T05:57:33;25.63;;;15.93;;
11671;SDS011;5892;43.412;24.612;2023-01-26T06:00:02;26.67;;;16.90;;
11671;SDS011;5892;43.412;24.612;2023-01-26T06:02:30;26.17;;;15.00;;
11671;SDS011;5892;43.412;24.612;2023-01-26T06:04:58;26.70;;;16.87;;
11671;SDS011;5892;43.412;24.612;2023-01-26T06:07:25;23.23;;;13.43;;
11671;SDS011;5892;43.412;24.612;2023-01-26T06:09:52;28.03;;;16.00;;
11671;SDS011;5892;43.412;24.612;2023-01-26T06:12:19;26.20;;;13.30;;
11671;SDS011;5892;43.412;24.612;2023-01-26T06:14:46;24.27;;;15.23;;
11671;SDS011;5892;43.412;24.612;2023-01-26T06:17:14;29.50;;;17.50;;
11671;SDS011;5892;43.412;24.612;2023-01-26T06:19:42;30.50;;;16.20;;
11671;SDS011;5892;43.412;24.612;2023-01-26T06:22:10;24.10;;;16.00;;
11671;SDS011;5892;43.412;24.612;2023-01-26T06:24:40;23.83;;;15.30;;
11671;SDS011;5892;43.412;24.612;2023-01-26T06:27:08;26.73;;;16.07;;
11671;SDS011;5892;43.412;24.612;2023-01-26T06:29:38;28.57;;;16.20;;
11671;SDS011;5892;43.412;24.612;2023-01-26T06:32:05;28.10;;;16.80;;
11671;SDS011;5892;43.412;24.612;2023-01-26T06:34:32;30.17;;;18.77;;
11671;SDS011;5892;43.412;24.612;2023-01-26T06:36:59;28.77;;;17.70;;
11671;SDS011;5892;43.412;24.612;2023-01-26T06:39:28;28.57;;;17.67;;
11671;SDS011;5892;43.412;24.612;2023-01-26T06:41:55;28.97;;;18.23;;
11671;SDS011;5892;43.412;24.612;2023-01-26T06:44:22;29.53;;;17.20;;
11671;SDS011;5892;43.412;24.612;2023-01-26T06:46:49;27.97;;;17.13;;
11671;SDS011;5892;43.412;24.612;2023-01-26T06:49:16;30.73;;;18.57;;
11671;SDS011;5892;43.412;24.612;2023-01-26T06:51:46;27.93;;;18.20;;
11671;SDS011;5892;43.412;24.612;2023-01-26T06:54:20;28.73;;;17.00;;
11671;SDS011;5892;43.412;24.612;2023-01-26T06:56:48;27.70;;;17.70;;
11671;SDS011;5892;43.412;24.612;2023-01-26T06:59:15;28.77;;;19.07;;
11671;SDS011;5892;43.412;24.612;2023-01-26T07:01:43;30.23;;;18.30;;
11671;SDS011;5892;43.412;24.612;2023-01-26T07:04:11;30.77;;;18.00;;
11671;SDS011;5892;43.412;24.612;2023-01-26T07:06:38;31.13;;;18.93;;
11671;SDS011;5892;43.412;24.612;2023-01-26T07:09:07;26.07;;;16.07;;
11671;SDS011;5892;43.412;24.612;2023-01-26T07:11:36;33.37;;;19.07;;
11671;SDS011;5892;43.412;24.612;2023-01-26T07:14:06;33.10;;;19.90;;
11671;SDS011;5892;43.412;24.612;2023-01-26T07:16:33;43.10;;;23.23;;
11671;SDS011;5892;43.412;24.612;2023-01-26T07:19:00;39.97;;;23.90;;
11671;SDS011;5892;43.412;24.612;2023-01-26T07:21:28;35.87;;;19.87;;
11671;SDS011;5892;43.412;24.612;2023-01-26T07:23:55;34.00;;;20.23;;
11671;SDS011;5892;43.412;24.612;2023-01-26T07:26:22;36.20;;;19.40;;
11671;SDS011;5892;43.412;24.612;2023-01-26T07:28:49;34.50;;;19.10;;
11671;SDS011;5892;43.412;24.612;2023-01-26T07:31:18;30.50;;;19.10;;
11671;SDS011;5892;43.412;24.612;2023-01-26T07:33:45;28.00;;;16.70;;
11671;SDS011;5892;43.412;24.612;2023-01-26T07:36:12;30.43;;;17.47;;
11671;SDS011;5892;43.412;24.612;2023-01-26T07:38:39;31.27;;;18.00;;
11671;SDS011;5892;43.412;24.612;2023-01-26T07:41:07;33.57;;;18.73;;
11671;SDS011;5892;43.412;24.612;2023-01-26T07:43:36;35.17;;;19.53;;
11671;SDS011;5892;43.412;24.612;2023-01-26T07:46:03;34.23;;;21.00;;
11671;SDS011;5892;43.412;24.612;2023-01-26T07:48:32;36.73;;;22.43;;
11671;SDS011;5892;43.412;24.612;2023-01-26T07:50:59;36.63;;;20.03;;
11671;SDS011;5892;43.412;24.612;2023-01-26T07:53:27;33.87;;;19.37;;
11671;SDS011;5892;43.412;24.612;2023-01-26T07:56:04;31.67;;;16.90;;
11671;SDS011;5892;43.412;24.612;2023-01-26T07:58:33;29.13;;;14.73;;
11671;SDS011;5892;43.412;24.612;2023-01-26T08:01:04;34.53;;;19.40;;
11671;SDS011;5892;43.412;24.612;2023-01-26T08:03:34;36.23;;;19.60;;
11671;SDS011;5892;43.412;24.612;2023-01-26T08:06:01;35.53;;;20.47;;
11671;SDS011;5892;43.412;24.612;2023-01-26T08:08:28;31.47;;;19.00;;
11671;SDS011;5892;43.412;24.612;2023-01-26T08:10:56;35.83;;;18.80;;
11671;SDS011;5892;43.412;24.612;2023-01-26T08:13:24;34.20;;;20.20;;
11671;SDS011;5892;43.412;24.612;2023-01-26T08:15:51;34.60;;;19.53;;
11671;SDS011;5892;43.412;24.612;2023-01-26T08:18:18;36.93;;;21.60;;
11671;SDS011;5892;43.412;24.612;2023-01-26T08:20:51;35.53;;;19.70;;
11671;SDS011;5892;43.412;24.612;2023-01-26T08:23:19;35.47;;;20.40;;
11671;SDS011;5892;43.412;24.612;2023-01-26T08:25:46;33.00;;;19.90;;
11671;SDS011;5892;43.412;24.612;2023-01-26T08:28:13;29.27;;;17.70;;
11671;SDS011;5892;43.412;24.612;2023-01-26T08:30:40;34.67;;;20.80;;
11671;SDS011;5892;43.412;24.612;2023-01-26T08:33:07;35.27;;;19.13;;
11671;SDS011;5892;43.412;24.612;2023-01-26T08:35:34;34.23;;;19.17;;
11671;SDS011;5892;43.412;24.612;2023-01-26T08:38:02;33.67;;;20.10;;
11671;SDS011;5892;43.412;24.612;2023-01-26T08:40:30;34.17;;;19.97;;
11671;SDS011;5892;43.412;24.612;2023-01-26T08:43:00;35.97;;;20.70;;
11671;SDS011;5892;43.412;24.612;2023-01-26T08:45:28;32.97;;;20.00;;
11671;SDS011;5892;43.412;24.612;2023-01-26T08:47:55;36.40;;;20.20;;
11671;SDS011;5892;43.412;24.612;2023-01-26T08:50:22;38.23;;;20.33;;
11671;SDS011;5892;43.412;24.612;2023-01-26T08:52:50;33.53;;;17.83;;
11671;SDS011;5892;43.412;24.612;2023-01-26T08:55:18;31.73;;;19.47;;
11671;SDS011;5892;43.412;24.612;2023-01-26T08:57:45;32.20;;;18.13;;
11671;SDS011;5892;43.412;24.612;2023-01-26T09:00:19;33.33;;;19.97;;
11671;SDS011;5892;43.412;24.612;2023-01-26T09:02:46;33.20;;;19.87;;
11671;SDS011;5892;43.412;24.612;2023-01-26T09:05:14;34.30;;;18.10;;
11671;SDS011;5892;43.412;24.612;2023-01-26T09:07:41;38.30;;;19.93;;
11671;SDS011;5892;43.412;24.612;2023-01-26T09:10:08;32.13;;;17.90;;
11671;SDS011;5892;43.412;24.612;2023-01-26T09:12:37;34.47;;;19.40;;
11671;SDS011;5892;43.412;24.612;2023-01-26T09:15:05;35.20;;;19.53;;
11671;SDS011;5892;43.412;24.612;2023-01-26T09:17:33;31.50;;;17.80;;
11671;SDS011;5892;43.412;24.612;2023-01-26T09:20:00;33.10;;;18.83;;
11671;SDS011;5892;43.412;24.612;2023-01-26T09:22:27;35.27;;;18.70;;
11671;SDS011;5892;43.412;24.612;2023-01-26T09:24:55;35.80;;;19.23;;
11671;SDS011;5892;43.412;24.612;2023-01-26T09:27:22;32.17;;;17.20;;
11671;SDS011;5892;43.412;24.612;2023-01-26T09:29:50;30.43;;;16.80;;
11671;SDS011;5892;43.412;24.612;2023-01-26T09:32:17;32.70;;;17.50;;
11671;SDS011;5892;43.412;24.612;2023-01-26T09:34:44;31.20;;;18.23;;
11671;SDS011;5892;43.412;24.612;2023-01-26T09:37:11;30.07;;;17.80;;
11671;SDS011;5892;43.412;24.612;2023-01-26T09:39:40;28.57;;;17.17;;
11671;SDS011;5892;43.412;24.612;2023-01-26T09:42:19;29.33;;;16.90;;
11671;SDS011;5892;43.412;24.612;2023-01-26T09:44:58;28.53;;;16.00;;
11671;SDS011;5892;43.412;24.612;2023-01-26T09:47:40;32.73;;;16.93;;
11671;SDS011;5892;43.412;24.612;2023-01-26T09:50:18;29.40;;;17.47;;
11671;SDS011;5892;43.412;24.612;2023-01-26T09:52:51;30.07;;;17.50;;
11671;SDS011;5892;43.412;24.612;2023-01-26T09:55:20;29.33;;;14.97;;
11671;SDS011;5892;43.412;24.612;2023-01-26T09:57:49;31.77;;;17.20;;
11671;SDS011;5892;43.412;24.612;2023-01-26T10:00:25;33.23;;;18.83;;
11671;SDS011;5892;43.412;24.612;2023-01-26T10:03:00;30.73;;;14.90;;
11671;SDS011;5892;43.412;24.612;2023-01-26T10:05:37;34.43;;;19.00;;
11671;SDS011;5892;43.412;24.612;2023-01-26T10:08:10;30.73;;;17.90;;
11671;SDS011;5892;43.412;24.612;2023-01-26T10:10:40;34.10;;;19.13;;
11671;SDS011;5892;43.412;24.612;2023-01-26T10:13:11;36.50;;;21.20;;
11671;SDS011;5892;43.412;24.612;2023-01-26T10:15:41;34.37;;;21.27;;
11671;SDS011;5892;43.412;24.612;2023-01-26T10:18:16;32.43;;;18.30;;
11671;SDS011;5892;43.412;24.612;2023-01-26T10:20:46;35.93;;;19.63;;
11671;SDS011;5892;43.412;24.612;2023-01-26T10:23:16;32.20;;;18.07;;
11671;SDS011;5892;43.412;24.612;2023-01-26T10:25:47;36.93;;;18.73;;
11671;SDS011;5892;43.412;24.612;2023-01-26T10:28:16;34.00;;;18.90;;
11671;SDS011;5892;43.412;24.612;2023-01-26T10:30:47;31.80;;;18.33;;
11671;SDS011;5892;43.412;24.612;2023-01-26T10:33:17;34.23;;;18.60;;
11671;SDS011;5892;43.412;24.612;2023-01-26T10:35:45;32.17;;;19.40;;
11671;SDS011;5892;43.412;24.612;2023-01-26T10:38:25;34.23;;;18.40;;
11671;SDS011;5892;43.412;24.612;2023-01-26T10:40:53;29.53;;;16.47;;
11671;SDS011;5892;43.412;24.612;2023-01-26T10:43:20;31.17;;;17.40;;
11671;SDS011;5892;43.412;24.612;2023-01-26T10:45:48;27.63;;;15.77;;
11671;SDS011;5892;43.412;24.612;2023-01-26T10:48:16;35.53;;;19.23;;
11671;SDS011;5892;43.412;24.612;2023-01-26T10:50:45;31.27;;;16.87;;
11671;SDS011;5892;43.412;24.612;2023-01-26T10:53:14;29.00;;;17.03;;
11671;SDS011;5892;43.412;24.612;2023-01-26T10:55:43;32.40;;;18.80;;
11671;SDS011;5892;43.412;24.612;2023-01-26T10:58:42;32.43;;;18.00;;
11671;SDS011;5892;43.412;24.612;2023-01-26T11:01:14;30.93;;;17.97;;
11671;SDS011;5892;43.412;24.612;2023-01-26T11:03:42;31.03;;;17.00;;
11671;SDS011;5892;43.412;24.612;2023-01-26T11:06:26;28.23;;;17.53;;
11671;SDS011;5892;43.412;24.612;2023-01-26T11:08:57;31.63;;;17.33;;
11671;SDS011;5892;43.412;24.612;2023-01-26T11:11:35;28.93;;;16.17;;
11671;SDS011;5892;43.412;24.612;2023-01-26T11:14:13;32.23;;;18.03;;
11671;SDS011;5892;43.412;24.612;2023-01-26T11:16:44;29.67;;;15.97;;
11671;SDS011;5892;43.412;24.612;2023-01-26T11:19:16;32.53;;;17.90;;
11671;SDS011;5892;43.412;24.612;2023-01-26T11:21:57;31.83;;;18.13;;
11671;SDS011;5892;43.412;24.612;2023-01-26T11:24:29;28.83;;;17.77;;
11671;SDS011;5892;43.412;24.612;2023-01-26T11:27:16;27.57;;;15.33;;
11671;SDS011;5892;43.412;24.612;2023-01-26T11:30:12;29.37;;;16.80;;
11671;SDS011;5892;43.412;24.612;2023-01-26T11:32:50;31.67;;;17.43;;
11671;SDS011;5892;43.412;24.612;2023-01-26T11:35:27;35.67;;;19.50;;
11671;SDS011;5892;43.412;24.612;2023-01-26T11:37:59;33.77;;;17.83;;
11671;SDS011;5892;43.412;24.612;2023-01-26T11:40:43;32.30;;;18.23;;
11671;SDS011;5892;43.412;24.612;2023-01-26T11:43:29;35.80;;;19.27;;
11671;SDS011;5892;43.412;24.612;2023-01-26T11:46:20;26.93;;;16.17;;
11671;SDS011;5892;43.412;24.612;2023-01-26T11:49:05;27.67;;;14.93;;
11671;SDS011;5892;43.412;24.612;2023-01-26T11:51:46;28.90;;;16.60;;
11671;SDS011;5892;43.412;24.612;2023-01-26T11:54:28;34.37;;;18.37;;
11671;SDS011;5892;43.412;24.612;2023-01-26T11:57:08;28.77;;;16.33;;
11671;SDS011;5892;43.412;24.612;2023-01-26T11:59:44;31.63;;;18.83;;
11671;SDS011;5892;43.412;24.612;2023-01-26T12:02:20;36.23;;;18.87;;
11671;SDS011;5892;43.412;24.612;2023-01-26T12:04:55;38.33;;;21.07;;
11671;SDS011;5892;43.412;24.612;2023-01-26T12:07:26;40.30;;;20.77;;
11671;SDS011;5892;43.412;24.612;2023-01-26T12:09:55;32.03;;;17.73;;
11671;SDS011;5892;43.412;24.612;2023-01-26T12:12:29;30.93;;;16.77;;
11671;SDS011;5892;43.412;24.612;2023-01-26T12:15:01;31.43;;;16.23;;
11671;SDS011;5892;43.412;24.612;2023-01-26T12:17:38;31.93;;;17.13;;
11671;SDS011;5892;43.412;24.612;2023-01-26T12:20:20;33.97;;;18.37;;
11671;SDS011;5892;43.412;24.612;2023-01-26T12:22:54;29.70;;;17.40;;
11671;SDS011;5892;43.412;24.612;2023-01-26T12:25:28;30.77;;;16.73;;
11671;SDS011;5892;43.412;24.612;2023-01-26T12:28:02;28.47;;;16.23;;
11671;SDS011;5892;43.412;24.612;2023-01-26T12:30:40;27.50;;;15.77;;
11671;SDS011;5892;43.412;24.612;2023-01-26T12:33:14;25.40;;;14.67;;
11671;SDS011;5892;43.412;24.612;2023-01-26T12:35:56;31.20;;;16.70;;
11671;SDS011;5892;43.412;24.612;2023-01-26T12:38:36;26.53;;;16.00;;
11671;SDS011;5892;43.412;24.612;2023-01-26T12:41:10;29.17;;;15.73;;
11671;SDS011;5892;43.412;24.612;2023-01-26T12:43:44;26.97;;;16.27;;
11671;SDS011;5892;43.412;24.612;2023-01-26T12:46:27;29.80;;;17.67;;
11671;SDS011;5892;43.412;24.612;2023-01-26T12:48:58;33.77;;;19.30;;
11671;SDS011;5892;43.412;24.612;2023-01-26T12:51:31;34.33;;;19.13;;
11671;SDS011;5892;43.412;24.612;2023-01-26T12:54:06;36.27;;;19.47;;
11671;SDS011;5892;43.412;24.612;2023-01-26T12:56:41;31.90;;;18.60;;
11671;SDS011;5892;43.412;24.612;2023-01-26T12:59:13;32.60;;;18.73;;
11671;SDS011;5892;43.412;24.612;2023-01-26T13:01:43;28.87;;;18.30;;
11671;SDS011;5892;43.412;24.612;2023-01-26T13:04:11;37.00;;;19.83;;
11671;SDS011;5892;43.412;24.612;2023-01-26T13:06:41;28.43;;;17.17;;
11671;SDS011;5892;43.412;24.612;2023-01-26T13:09:18;29.30;;;18.30;;
11671;SDS011;5892;43.412;24.612;2023-01-26T13:11:49;32.60;;;17.53;;
11671;SDS011;5892;43.412;24.612;2023-01-26T13:14:31;28.60;;;17.53;;
11671;SDS011;5892;43.412;24.612;2023-01-26T13:20:22;26.03;;;14.40;;
11671;SDS011;5892;43.412;24.612;2023-01-26T13:22:53;25.07;;;14.57;;
11671;SDS011;5892;43.412;24.612;2023-01-26T13:25:27;26.40;;;15.07;;
11671;SDS011;5892;43.412;24.612;2023-01-26T13:27:57;23.30;;;14.30;;
11671;SDS011;5892;43.412;24.612;2023-01-26T13:30:32;27.40;;;15.80;;
11671;SDS011;5892;43.412;24.612;2023-01-26T13:33:10;26.37;;;15.63;;
11671;SDS011;5892;43.412;24.612;2023-01-26T13:35:39;26.37;;;16.77;;
11671;SDS011;5892;43.412;24.612;2023-01-26T13:38:13;25.93;;;16.20;;
11671;SDS011;5892;43.412;24.612;2023-01-26T13:40:46;27.80;;;16.27;;
11671;SDS011;5892;43.412;24.612;2023-01-26T13:43:16;29.03;;;17.83;;
11671;SDS011;5892;43.412;24.612;2023-01-26T13:46:02;28.37;;;16.67;;
11671;SDS011;5892;43.412;24.612;2023-01-26T13:48:40;29.63;;;17.27;;
11671;SDS011;5892;43.412;24.612;2023-01-26T13:51:11;29.40;;;18.43;;
11671;SDS011;5892;43.412;24.612;2023-01-26T13:53:42;27.07;;;17.00;;
11671;SDS011;5892;43.412;24.612;2023-01-26T13:56:21;31.03;;;18.57;;
11671;SDS011;5892;43.412;24.612;2023-01-26T13:58:50;35.20;;;21.30;;
11671;SDS011;5892;43.412;24.612;2023-01-26T14:01:17;36.30;;;23.37;;
11671;SDS011;5892;43.412;24.612;2023-01-26T14:03:46;43.50;;;27.40;;
11671;SDS011;5892;43.412;24.612;2023-01-26T14:06:13;43.23;;;26.20;;
11671;SDS011;5892;43.412;24.612;2023-01-26T14:08:50;49.90;;;29.67;;
11671;SDS011;5892;43.412;24.612;2023-01-26T14:11:19;35.37;;;22.87;;
11671;SDS011;5892;43.412;24.612;2023-01-26T14:13:49;43.80;;;25.80;;
11671;SDS011;5892;43.412;24.612;2023-01-26T14:16:21;52.00;;;30.47;;
11671;SDS011;5892;43.412;24.612;2023-01-26T14:19:02;50.60;;;31.87;;
11671;SDS011;5892;43.412;24.612;2023-01-26T14:21:33;49.53;;;31.57;;
11671;SDS011;5892;43.412;24.612;2023-01-26T14:24:13;53.00;;;32.93;;
11671;SDS011;5892;43.412;24.612;2023-01-26T14:26:40;45.87;;;27.60;;
11671;SDS011;5892;43.412;24.612;2023-01-26T14:29:11;47.87;;;32.67;;
11671;SDS011;5892;43.412;24.612;2023-01-26T14:31:45;42.80;;;27.40;;
11671;SDS011;5892;43.412;24.612;2023-01-26T14:34:13;42.47;;;24.73;;
11671;SDS011;5892;43.412;24.612;2023-01-26T14:36:47;36.87;;;23.70;;
11671;SDS011;5892;43.412;24.612;2023-01-26T14:39:17;38.80;;;24.33;;
11671;SDS011;5892;43.412;24.612;2023-01-26T14:41:45;38.27;;;24.67;;
11671;SDS011;5892;43.412;24.612;2023-01-26T14:44:12;39.77;;;24.03;;
11671;SDS011;5892;43.412;24.612;2023-01-26T14:46:49;39.70;;;24.10;;
11671;SDS011;5892;43.412;24.612;2023-01-26T14:49:23;33.67;;;22.00;;